Time;durP1;ratioP1;P1;durP2;ratioP2;P2;SDS_P1;SDS_P2;PMS_P1;PMS_P2;Temp;Humidity;BMP_temperature;BMP_pressure;BME280_temperature;BME280_humidity;BME280_pressure;Samples;Min_cycle;Max_cycle;Signal;HPM_P1;HPM_P2
2023/05/08 00:02:15;;;;;;;10.02;9.10;;;17.10;99.90;;;;;;5083133;28;20111;-43
2023/05/08 00:04:41;;;;;;;13.43;10.05;;;17.20;99.90;;;;;;5081701;28;20027;-44
2023/05/08 00:07:06;;;;;;;11.15;9.88;;;17.10;99.90;;;;;;5083173;28;20036;-44
2023/05/08 00:09:32;;;;;;;11.75;10.63;;;17.10;99.90;;;;;;5082607;28;20024;-43
2023/05/08 00:11:57;;;;;;;11.35;10.25;;;17.10;99.90;;;;;;5082087;28;20122;-44
2023/05/08 00:14:23;;;;;;;12.27;11.00;;;17.10;99.90;;;;;;5081937;28;20024;-42
2023/05/08 00:16:48;;;;;;;12.05;10.85;;;17.00;99.90;;;;;;5083424;28;20028;-43
2023/05/08 00:19:14;;;;;;;12.52;11.23;;;17.00;99.90;;;;;;5082710;28;20016;-44
2023/05/08 00:21:39;;;;;;;13.07;11.50;;;17.00;99.90;;;;;;5082622;28;20558;-43
2023/05/08 00:24:05;;;;;;;12.95;11.45;;;17.00;99.90;;;;;;5082547;28;20023;-43
2023/05/08 00:26:31;;;;;;;11.55;10.38;;;16.90;99.90;;;;;;5081177;28;20019;-43
2023/05/08 00:28:56;;;;;;;12.32;11.05;;;16.90;99.90;;;;;;5082027;28;20024;-44
2023/05/08 00:31:22;;;;;;;13.40;10.88;;;16.90;99.90;;;;;;5082223;28;20829;-43
2023/05/08 00:33:48;;;;;;;12.88;11.57;;;16.90;99.90;;;;;;5080874;28;20012;-43
2023/05/08 00:36:14;;;;;;;12.77;11.57;;;16.90;99.90;;;;;;5082163;28;20383;-43
2023/05/08 00:38:40;;;;;;;12.48;11.18;;;16.80;99.90;;;;;;5081996;28;20028;-43
2023/05/08 00:41:05;;;;;;;12.88;11.55;;;16.80;99.90;;;;;;5081737;28;20031;-43
2023/05/08 00:43:32;;;;;;;12.98;11.55;;;16.80;99.90;;;;;;5081560;28;20623;-43
2023/05/08 00:46:00;;;;;;;12.05;10.85;;;16.80;99.90;;;;;;5082707;28;20383;-44
2023/05/08 00:48:32;;;;;;;13.00;11.70;;;16.80;99.90;;;;;;5081041;28;20800;-44
2023/05/08 00:50:59;;;;;;;12.50;11.23;;;16.70;99.90;;;;;;5081472;28;20554;-43
2023/05/08 00:53:25;;;;;;;13.35;11.15;;;16.70;99.90;;;;;;5080148;28;20167;-44
2023/05/08 00:55:51;;;;;;;12.32;11.05;;;16.60;99.90;;;;;;5081676;28;20024;-44
2023/05/08 00:58:18;;;;;;;12.40;11.20;;;16.60;99.90;;;;;;5081918;28;20105;-44
2023/05/08 01:00:45;;;;;;;12.52;11.23;;;16.50;99.90;;;;;;5080794;28;20492;-44
2023/05/08 01:03:12;;;;;;;12.20;11.00;;;16.50;99.90;;;;;;5081969;28;20050;-43
2023/05/08 01:05:43;;;;;;;12.93;11.73;;;16.40;99.90;;;;;;5080970;28;20027;-43
2023/05/08 01:08:12;;;;;;;12.97;11.73;;;16.40;99.90;;;;;;5080827;28;20086;-43
2023/05/08 01:10:50;;;;;;;13.52;12.13;;;16.30;99.90;;;;;;5080499;28;20357;-44
2023/05/08 01:13:46;;;;;;;13.80;12.27;;;16.30;99.90;;;;;;5081616;28;20112;-44
2023/05/08 01:16:39;;;;;;;13.68;11.80;;;16.20;99.90;;;;;;5080521;28;20035;-44
2023/05/08 01:19:39;;;;;;;14.32;12.02;;;16.10;99.90;;;;;;5060925;28;20035;-44
2023/05/08 01:22:46;;;;;;;13.95;12.55;;;16.10;99.90;;;;;;5064601;28;20139;-43
2023/05/08 01:25:45;;;;;;;15.35;12.20;;;16.10;99.90;;;;;;5045878;28;20028;-44
2023/05/08 01:28:28;;;;;;;13.80;12.32;;;16.00;99.90;;;;;;5072601;28;20028;-43
2023/05/08 01:31:02;;;;;;;;;;;16.00;99.90;;;;;;5081176;28;20036;-43
2023/05/08 01:33:40;;;;;;;12.95;10.90;;;16.00;99.90;;;;;;5080527;28;20408;-44
2023/05/08 01:36:22;;;;;;;11.95;10.75;;;15.90;99.90;;;;;;5080556;28;20487;-43
2023/05/08 01:39:13;;;;;;;12.88;11.45;;;15.90;99.90;;;;;;5081145;28;20131;-43
2023/05/08 01:41:45;;;;;;;12.93;11.63;;;15.90;99.90;;;;;;5080033;28;20024;-43
2023/05/08 01:44:21;;;;;;;13.40;12.00;;;15.80;99.90;;;;;;5080728;28;20046;-43
2023/05/08 01:46:50;;;;;;;12.90;11.25;;;15.80;99.90;;;;;;5080024;28;20024;-43
2023/05/08 01:49:28;;;;;;;16.60;12.50;;;15.70;99.90;;;;;;5080856;28;20677;-43
2023/05/08 01:52:04;;;;;;;13.45;12.00;;;15.70;99.90;;;;;;5080579;28;20047;-44
2023/05/08 01:54:38;;;;;;;14.32;12.93;;;15.70;99.90;;;;;;5080295;28;20031;-44
2023/05/08 01:57:08;;;;;;;14.50;12.05;;;15.70;99.90;;;;;;5080377;28;20027;-43
2023/05/08 01:59:35;;;;;;;14.25;12.75;;;15.70;99.90;;;;;;5080490;28;20080;-43
2023/05/08 02:02:02;;;;;;;13.88;11.77;;;15.60;99.90;;;;;;5081358;28;20596;-43
2023/05/08 02:04:28;;;;;;;13.48;12.18;;;15.60;99.90;;;;;;5079609;28;20024;-43
2023/05/08 02:06:55;;;;;;;12.98;11.75;;;15.60;99.90;;;;;;5080697;28;20027;-44
2023/05/08 02:09:22;;;;;;;12.98;11.68;;;15.60;99.90;;;;;;5080993;28;20028;-43
2023/05/08 02:11:49;;;;;;;14.73;12.60;;;15.60;99.90;;;;;;5079623;28;20032;-44
2023/05/08 02:14:18;;;;;;;14.60;12.63;;;15.70;99.90;;;;;;5081057;28;20024;-43
2023/05/08 02:16:45;;;;;;;13.80;12.40;;;15.60;99.90;;;;;;5080103;28;20071;-43
2023/05/08 02:19:11;;;;;;;13.90;12.50;;;15.60;99.90;;;;;;5079903;28;20036;-44
2023/05/08 02:21:39;;;;;;;16.50;13.52;;;15.60;99.90;;;;;;5079717;28;20160;-43
2023/05/08 02:24:05;;;;;;;14.55;13.05;;;15.60;99.90;;;;;;5080406;28;20020;-43
2023/05/08 02:26:32;;;;;;;14.80;13.30;;;15.60;99.90;;;;;;5079273;28;20024;-44
2023/05/08 02:29:01;;;;;;;14.07;12.68;;;15.50;99.90;;;;;;5080046;28;20020;-43
2023/05/08 02:31:28;;;;;;;14.20;12.65;;;15.50;99.90;;;;;;5080534;28;20118;-43
2023/05/08 02:33:54;;;;;;;15.05;13.30;;;15.50;99.90;;;;;;5080301;28;20111;-43
2023/05/08 02:36:21;;;;;;;15.55;13.57;;;15.50;99.90;;;;;;5080984;28;20089;-44
2023/05/08 02:38:51;;;;;;;15.80;13.85;;;15.40;99.90;;;;;;5079930;28;20062;-44
2023/05/08 02:41:21;;;;;;;15.68;13.70;;;15.40;99.90;;;;;;5080538;28;20063;-44
2023/05/08 02:43:47;;;;;;;15.35;13.75;;;15.40;99.90;;;;;;5079747;28;20020;-44
2023/05/08 02:46:42;;;;;;;15.52;13.93;;;15.30;99.90;;;;;;5080132;28;20855;-44
2023/05/08 02:49:42;;;;;;;14.88;13.30;;;15.30;99.90;;;;;;5080144;28;20838;-44
2023/05/08 02:52:16;;;;;;;15.65;13.85;;;15.20;99.90;;;;;;5041724;28;20381;-44
2023/05/08 02:54:43;;;;;;;15.68;14.05;;;15.20;99.90;;;;;;5075119;28;20376;-43
2023/05/08 02:57:23;;;;;;;14.68;13.18;;;15.20;99.90;;;;;;5060517;28;20020;-44
2023/05/08 03:00:10;;;;;;;16.23;14.13;;;15.20;99.90;;;;;;5075169;28;20119;-43
2023/05/08 03:02:48;;;;;;;15.43;13.90;;;15.20;99.90;;;;;;5059102;28;20559;-43
2023/05/08 03:05:23;;;;;;;15.68;13.48;;;15.10;99.90;;;;;;5077982;28;20100;-44
2023/05/08 03:07:53;;;;;;;15.60;13.48;;;15.20;99.90;;;;;;5079821;28;20036;-44
2023/05/08 03:10:22;;;;;;;15.18;12.90;;;15.10;99.90;;;;;;5081539;28;20074;-44
2023/05/08 03:12:52;;;;;;;14.07;12.57;;;15.10;99.90;;;;;;5083674;28;20036;-44
2023/05/08 03:15:25;;;;;;;14.23;12.82;;;15.00;99.90;;;;;;5083086;28;20032;-43
2023/05/08 03:18:01;;;;;;;14.13;12.60;;;15.00;99.90;;;;;;5063344;28;20033;-43
2023/05/08 03:20:32;;;;;;;15.20;13.70;;;15.00;99.90;;;;;;5078383;28;20114;-43
2023/05/08 03:22:59;;;;;;;14.52;13.13;;;15.00;99.90;;;;;;5083491;28;20107;-44
2023/05/08 03:25:26;;;;;;;15.77;13.70;;;15.00;99.90;;;;;;5082617;28;20028;-44
2023/05/08 03:27:52;;;;;;;14.90;13.40;;;15.00;99.90;;;;;;5082143;28;20391;-44
2023/05/08 03:30:20;;;;;;;18.35;14.05;;;14.90;99.90;;;;;;5082487;28;20838;-42
2023/05/08 03:32:46;;;;;;;16.52;14.77;;;14.90;99.90;;;;;;5082628;28;20048;-44
2023/05/08 03:35:14;;;;;;;16.70;14.93;;;14.90;99.90;;;;;;5082702;28;20118;-44
2023/05/08 03:37:43;;;;;;;16.33;14.63;;;14.90;99.90;;;;;;5083093;28;20089;-43
2023/05/08 03:40:12;;;;;;;15.15;13.65;;;14.90;99.90;;;;;;5082638;28;20201;-43
2023/05/08 03:42:39;;;;;;;15.00;13.50;;;14.90;99.90;;;;;;5081912;28;20042;-43
2023/05/08 03:45:06;;;;;;;14.73;13.13;;;14.90;99.90;;;;;;5082734;28;20028;-44
2023/05/08 03:47:34;;;;;;;15.82;14.13;;;14.90;99.90;;;;;;5071301;28;20476;-43
2023/05/08 03:50:00;;;;;;;15.23;13.73;;;14.80;99.90;;;;;;5082510;28;20092;-44
2023/05/08 03:52:25;;;;;;;15.18;13.68;;;14.80;99.90;;;;;;5082337;28;20570;-44
2023/05/08 03:54:51;;;;;;;16.52;13.80;;;14.80;99.90;;;;;;5083603;28;20031;-43
2023/05/08 03:57:16;;;;;;;16.25;14.55;;;14.90;99.90;;;;;;5082424;28;20028;-43
2023/05/08 03:59:58;;;;;;;16.95;15.15;;;14.90;99.90;;;;;;5083066;28;20073;-44
2023/05/08 04:02:35;;;;;;;15.85;14.25;;;14.90;99.90;;;;;;5082363;28;20692;-44
2023/05/08 04:05:23;;;;;;;16.17;14.57;;;14.80;99.90;;;;;;5082315;28;20032;-43
2023/05/08 04:07:56;;;;;;;15.70;14.00;;;14.80;99.90;;;;;;5082521;28;20035;-44
2023/05/08 04:10:29;;;;;;;16.92;14.35;;;14.80;99.90;;;;;;5082142;28;20024;-43
2023/05/08 04:13:04;;;;;;;15.38;13.30;;;14.80;99.90;;;;;;5078822;28;20032;-43
2023/05/08 04:15:32;;;;;;;15.93;14.27;;;14.70;99.90;;;;;;5082884;28;20036;-42
2023/05/08 04:18:08;;;;;;;16.33;14.63;;;14.70;99.90;;;;;;5081337;28;20047;-43
2023/05/08 04:20:34;;;;;;;16.45;14.75;;;14.70;99.90;;;;;;5082300;28;20050;-43
2023/05/08 04:23:02;;;;;;;16.52;14.75;;;14.70;99.90;;;;;;5082127;28;20625;-43
2023/05/08 04:25:29;;;;;;;16.00;14.45;;;14.70;99.90;;;;;;5081325;28;20039;-43
2023/05/08 04:27:57;;;;;;;16.48;14.60;;;14.70;99.90;;;;;;5081777;28;20043;-44
2023/05/08 04:30:23;;;;;;;18.60;15.77;;;14.70;99.90;;;;;;5081964;28;20032;-44
2023/05/08 04:32:50;;;;;;;16.23;14.52;;;14.70;99.90;;;;;;5080783;28;20185;-44
2023/05/08 04:35:15;;;;;;;16.67;14.90;;;14.70;99.90;;;;;;5082487;28;20020;-44
2023/05/08 04:37:44;;;;;;;16.75;15.15;;;14.70;99.90;;;;;;5081266;28;20027;-43
2023/05/08 04:40:10;;;;;;;15.27;13.77;;;14.70;99.90;;;;;;5080838;28;20536;-44
2023/05/08 04:42:41;;;;;;;16.55;14.85;;;14.70;99.90;;;;;;5081888;28;20023;-43
2023/05/08 04:45:10;;;;;;;16.20;14.60;;;14.70;99.90;;;;;;5082390;28;20024;-44
2023/05/08 04:47:36;;;;;;;17.17;15.48;;;14.70;99.90;;;;;;5081152;28;20368;-44
2023/05/08 04:50:01;;;;;;;16.55;14.95;;;14.70;99.90;;;;;;5082473;28;20020;-44
2023/05/08 04:52:27;;;;;;;16.35;14.75;;;14.70;99.90;;;;;;5080049;28;20090;-42
2023/05/08 04:54:53;;;;;;;16.17;14.55;;;14.70;99.90;;;;;;5082049;28;20016;-44
2023/05/08 04:57:18;;;;;;;16.05;14.45;;;14.80;99.90;;;;;;5081665;28;20032;-44
2023/05/08 04:59:44;;;;;;;17.02;15.10;;;14.80;99.90;;;;;;5081264;28;20119;-43
2023/05/08 05:02:09;;;;;;;16.90;15.23;;;14.80;99.90;;;;;;5082349;28;20056;-45
2023/05/08 05:04:35;;;;;;;16.27;14.57;;;14.80;99.90;;;;;;5080655;28;20052;-43
2023/05/08 05:07:02;;;;;;;17.10;15.30;;;14.80;99.90;;;;;;5080804;28;20032;-43
2023/05/08 05:09:28;;;;;;;17.48;15.50;;;14.80;99.90;;;;;;5080543;28;20023;-43
2023/05/08 05:11:53;;;;;;;18.05;15.15;;;14.80;99.90;;;;;;5081872;28;20032;-43
2023/05/08 05:14:19;;;;;;;17.20;15.25;;;14.80;99.90;;;;;;5080817;28;20031;-43
2023/05/08 05:16:45;;;;;;;17.38;15.68;;;14.80;99.90;;;;;;5081660;28;20028;-44
2023/05/08 05:19:10;;;;;;;17.83;15.95;;;14.90;99.90;;;;;;5081147;28;20024;-43
2023/05/08 05:21:36;;;;;;;18.52;16.63;;;14.90;99.90;;;;;;5080920;28;20024;-47
2023/05/08 05:24:03;;;;;;;18.15;16.35;;;14.90;99.90;;;;;;5082069;28;20024;-43
2023/05/08 05:26:29;;;;;;;17.33;15.65;;;14.90;99.90;;;;;;5080407;28;20774;-43
2023/05/08 05:28:54;;;;;;;16.75;15.05;;;14.90;99.90;;;;;;5080360;28;20024;-43
2023/05/08 05:31:20;;;;;;;17.67;15.88;;;14.90;99.90;;;;;;5081147;28;20442;-44
2023/05/08 05:33:45;;;;;;;16.45;14.75;;;15.00;99.90;;;;;;5080118;28;20024;-44
2023/05/08 05:36:11;;;;;;;17.13;15.50;;;15.00;99.90;;;;;;5080686;28;20075;-43
2023/05/08 05:38:37;;;;;;;16.67;15.00;;;15.10;99.90;;;;;;5080563;28;20058;-43
2023/05/08 05:41:02;;;;;;;17.88;15.93;;;15.10;99.90;;;;;;5081408;28;20032;-44
2023/05/08 05:43:28;;;;;;;16.85;15.23;;;15.20;99.90;;;;;;5087838;28;20103;-44
2023/05/08 05:45:56;;;;;;;16.67;15.00;;;15.20;99.90;;;;;;5080364;28;20027;-44
2023/05/08 05:48:22;;;;;;;15.77;14.27;;;15.20;99.90;;;;;;5078217;28;20119;-44
2023/05/08 05:50:47;;;;;;;17.40;15.60;;;15.30;99.90;;;;;;5079035;28;20039;-44
2023/05/08 05:53:14;;;;;;;15.98;14.30;;;15.40;99.90;;;;;;5079426;28;20044;-44
2023/05/08 05:55:40;;;;;;;16.70;15.05;;;15.40;99.90;;;;;;5078797;28;20039;-44
2023/05/08 05:58:06;;;;;;;16.67;15.07;;;15.50;99.90;;;;;;5079730;28;20028;-43
2023/05/08 06:00:31;;;;;;;17.67;15.63;;;15.50;99.90;;;;;;5079106;28;20631;-44
2023/05/08 06:02:57;;;;;;;17.35;15.65;;;15.60;99.90;;;;;;5078237;28;20016;-43
2023/05/08 06:05:23;;;;;;;18.00;16.15;;;15.60;99.90;;;;;;5079068;28;20040;-44
2023/05/08 06:07:49;;;;;;;17.30;15.70;;;15.70;99.90;;;;;;5079630;28;20024;-44
2023/05/08 06:10:14;;;;;;;16.35;14.77;;;15.70;99.90;;;;;;5078898;28;20066;-43
2023/05/08 06:12:40;;;;;;;17.98;16.17;;;15.80;99.90;;;;;;5079332;28;20036;-43
2023/05/08 06:15:06;;;;;;;17.92;15.98;;;15.80;99.90;;;;;;5079683;28;20127;-43
2023/05/08 06:17:32;;;;;;;17.48;15.68;;;15.80;99.90;;;;;;5078803;28;20024;-44
2023/05/08 06:19:58;;;;;;;17.40;15.57;;;15.90;99.90;;;;;;5079541;28;20690;-44
2023/05/08 06:22:24;;;;;;;16.77;14.98;;;15.90;99.90;;;;;;5079268;28;20030;-45
2023/05/08 06:24:53;;;;;;;17.13;15.32;;;16.00;99.90;;;;;;5079111;28;20024;-43
2023/05/08 06:27:19;;;;;;;16.70;15.10;;;16.00;99.90;;;;;;5079103;28;20020;-43
2023/05/08 06:29:47;;;;;;;17.35;15.65;;;16.10;99.90;;;;;;5079726;28;20024;-44
2023/05/08 06:32:12;;;;;;;17.38;15.68;;;16.10;99.90;;;;;;5079341;28;20024;-45
2023/05/08 06:34:38;;;;;;;18.23;16.33;;;16.10;99.90;;;;;;5079532;28;20024;-44
2023/05/08 06:37:03;;;;;;;19.85;16.08;;;16.10;99.90;;;;;;5079217;28;20109;-43
2023/05/08 06:39:29;;;;;;;18.80;16.80;;;16.10;99.90;;;;;;5079034;28;20133;-43
2023/05/08 06:41:55;;;;;;;19.33;17.27;;;16.20;99.90;;;;;;5079318;28;20036;-43
2023/05/08 06:44:20;;;;;;;17.73;15.93;;;16.20;99.90;;;;;;5081129;28;20012;-44
2023/05/08 06:46:46;;;;;;;20.58;17.33;;;16.30;99.90;;;;;;5083168;28;20031;-44
2023/05/08 06:49:11;;;;;;;21.80;17.35;;;16.30;99.90;;;;;;5084544;28;20024;-44
2023/05/08 06:51:38;;;;;;;23.63;17.60;;;16.30;99.90;;;;;;5082764;28;20500;-43
2023/05/08 06:54:07;;;;;;;23.65;18.40;;;16.30;99.90;;;;;;5083102;28;20027;-43
2023/05/08 06:56:33;;;;;;;24.10;18.45;;;16.40;99.90;;;;;;5083035;28;20020;-44
2023/05/08 06:58:59;;;;;;;26.35;19.10;;;16.40;99.90;;;;;;5082654;28;20028;-44
2023/05/08 07:01:24;;;;;;;24.00;18.55;;;16.50;99.90;;;;;;5083211;28;20020;-45
2023/05/08 07:03:50;;;;;;;26.50;18.77;;;16.50;99.90;;;;;;5083386;28;20033;-44
2023/05/08 07:06:16;;;;;;;26.75;18.83;;;16.60;99.90;;;;;;5082925;28;20028;-43
2023/05/08 07:08:41;;;;;;;28.98;19.67;;;16.60;99.90;;;;;;5083142;28;20012;-44
2023/05/08 07:11:08;;;;;;;24.45;18.42;;;16.70;99.90;;;;;;5083587;28;20071;-45
2023/05/08 07:13:34;;;;;;;25.55;18.60;;;16.80;99.90;;;;;;5082385;28;20490;-44
2023/05/08 07:16:00;;;;;;;25.08;19.10;;;16.90;99.90;;;;;;5083769;28;20036;-43
2023/05/08 07:18:26;;;;;;;24.67;18.38;;;17.00;99.90;;;;;;5082860;28;20023;-45
2023/05/08 07:20:51;;;;;;;24.20;18.67;;;17.20;99.90;;;;;;5083308;28;20027;-44
2023/05/08 07:23:17;;;;;;;20.00;16.90;;;17.40;99.90;;;;;;5083315;28;20024;-44
2023/05/08 07:25:42;;;;;;;25.45;19.25;;;17.60;99.90;;;;;;5083250;28;20682;-44
2023/05/08 07:28:08;;;;;;;28.15;19.50;;;17.80;99.90;;;;;;5082532;28;20361;-44
2023/05/08 07:30:34;;;;;;;26.85;19.92;;;17.90;99.90;;;;;;5082988;28;20462;-43
2023/05/08 07:33:00;;;;;;;28.92;20.23;;;18.10;99.90;;;;;;5083286;28;20445;-43
2023/05/08 07:35:26;;;;;;;24.23;18.80;;;18.20;99.90;;;;;;5082137;28;20471;-44
2023/05/08 07:37:51;;;;;;;24.75;18.52;;;18.30;99.90;;;;;;5083007;28;20157;-44
2023/05/08 07:40:17;;;;;;;29.73;20.30;;;18.50;99.90;;;;;;5083386;28;20032;-45
2023/05/08 07:42:43;;;;;;;25.58;19.80;;;18.50;99.90;;;;;;5082168;28;20055;-45
2023/05/08 07:45:10;;;;;;;26.92;19.45;;;18.60;99.90;;;;;;5083114;28;20024;-44
2023/05/08 07:47:50;;;;;;;25.70;19.02;;;18.60;99.90;;;;;;5083029;28;20796;-43
2023/05/08 07:50:15;;;;;;;26.55;19.38;;;18.70;99.90;;;;;;5080253;28;20153;-43
2023/05/08 07:52:41;;;;;;;24.00;18.02;;;18.80;99.90;;;;;;5082180;28;20044;-43
2023/05/08 07:55:07;;;;;;;24.27;19.23;;;18.80;99.90;;;;;;5081717;28;20486;-44
2023/05/08 07:57:40;;;;;;;21.85;18.17;;;18.90;99.90;;;;;;5082246;28;20683;-44
2023/05/08 08:00:08;;;;;;;23.88;18.50;;;18.90;99.90;;;;;;5082717;28;20024;-44
2023/05/08 08:02:33;;;;;;;24.00;18.02;;;18.80;99.90;;;;;;5080771;28;20373;-44
2023/05/08 08:04:59;;;;;;;22.55;19.75;;;18.80;99.90;;;;;;5082195;28;20019;-44
2023/05/08 08:07:24;;;;;;;22.35;18.92;;;18.80;99.90;;;;;;5081779;28;20082;-44
2023/05/08 08:09:50;;;;;;;21.65;18.60;;;18.70;99.90;;;;;;5081533;28;20032;-45
2023/05/08 08:12:15;;;;;;;24.65;18.67;;;18.70;99.90;;;;;;5082211;28;20035;-44
2023/05/08 08:14:41;;;;;;;23.95;18.65;;;18.80;99.90;;;;;;5081528;28;20024;-44
2023/05/08 08:17:07;;;;;;;22.33;17.98;;;18.80;99.90;;;;;;5081571;28;20020;-44
2023/05/08 08:19:32;;;;;;;22.45;17.50;;;18.90;99.90;;;;;;5082333;28;20623;-44
2023/05/08 08:21:58;;;;;;;23.63;19.00;;;18.90;99.90;;;;;;5082251;28;20035;-44
2023/05/08 08:24:24;;;;;;;23.00;18.55;;;18.90;99.90;;;;;;5080910;28;20139;-43
2023/05/08 08:26:49;;;;;;;23.33;19.27;;;19.00;99.90;;;;;;5082339;28;20107;-43
2023/05/08 08:29:18;;;;;;;26.10;20.67;;;19.00;99.90;;;;;;5080232;28;20027;-44
2023/05/08 08:31:43;;;;;;;26.42;20.65;;;19.10;99.90;;;;;;5081128;28;20032;-44
2023/05/08 08:34:09;;;;;;;25.10;19.98;;;19.10;99.90;;;;;;5081612;28;20050;-44
2023/05/08 08:36:34;;;;;;;25.48;19.42;;;19.10;99.90;;;;;;5080878;28;20375;-43
2023/05/08 08:39:00;;;;;;;25.52;19.65;;;19.20;99.90;;;;;;5081360;28;20555;-43
2023/05/08 08:41:26;;;;;;;22.98;19.10;;;19.30;99.90;;;;;;5080179;28;20085;-44
2023/05/08 08:43:53;;;;;;;20.75;18.55;;;19.40;99.90;;;;;;5081087;28;20047;-44
2023/05/08 08:46:24;;;;;;;20.92;17.08;;;19.40;99.90;;;;;;5080651;28;20204;-44
2023/05/08 08:48:52;;;;;;;22.83;19.45;;;19.40;99.90;;;;;;5082309;28;20024;-45
2023/05/08 08:51:34;;;;;;;19.88;17.73;;;19.50;99.90;;;;;;5080874;28;20144;-44
2023/05/08 08:54:00;;;;;;;;;;;19.50;99.90;;;;;;5082049;28;20051;-44
2023/05/08 08:56:26;;;;;;;16.33;14.52;;;19.60;99.90;;;;;;5080965;28;20268;-44
2023/05/08 08:58:59;;;;;;;20.75;17.92;;;19.60;99.90;;;;;;5080785;28;20038;-44
2023/05/08 09:01:28;;;;;;;24.20;19.77;;;19.80;99.90;;;;;;5080558;28;20028;-35
2023/05/08 09:03:56;;;;;;;25.08;20.45;;;19.80;99.90;;;;;;5081529;28;20081;-35
2023/05/08 09:06:21;;;;;;;24.58;20.38;;;19.80;99.90;;;;;;5080399;28;20809;-36
2023/05/08 09:08:48;;;;;;;25.40;20.65;;;19.80;99.90;;;;;;5080269;28;20463;-35
2023/05/08 09:11:13;;;;;;;24.27;19.15;;;19.80;99.90;;;;;;5081032;28;20482;-37
2023/05/08 09:13:39;;;;;;;22.67;17.08;;;19.80;99.90;;;;;;5080057;28;20031;-35
2023/05/08 09:16:05;;;;;;;25.65;20.05;;;19.80;99.90;;;;;;5080977;28;20772;-35
2023/05/08 09:18:30;;;;;;;30.55;21.60;;;19.80;99.90;;;;;;5081369;28;20036;-37
2023/05/08 09:20:56;;;;;;;23.42;18.02;;;19.80;99.90;;;;;;5080968;28;20513;-36
2023/05/08 09:23:22;;;;;;;24.75;18.65;;;19.80;99.90;;;;;;5080909;28;20825;-36
2023/05/08 09:25:49;;;;;;;22.92;19.85;;;19.80;99.90;;;;;;5081331;28;20131;-35
2023/05/08 09:28:20;;;;;;;23.02;19.52;;;19.90;99.90;;;;;;5080525;28;20032;-34
2023/05/08 09:30:49;;;;;;;19.38;15.95;;;20.00;99.90;;;;;;5080836;28;20475;-35
2023/05/08 09:33:18;;;;;;;23.25;19.95;;;20.00;99.90;;;;;;5080965;28;20075;-35
2023/05/08 09:35:44;;;;;;;22.05;18.67;;;20.10;99.90;;;;;;5079930;28;20030;-35
2023/05/08 09:38:36;;;;;;;26.83;19.85;;;20.10;99.90;;;;;;5080515;28;20024;-35
2023/05/08 09:41:10;;;;;;;23.27;19.95;;;20.20;99.90;;;;;;5080207;28;20554;-35
2023/05/08 09:43:36;;;;;;;17.65;15.80;;;20.20;99.90;;;;;;5080631;28;20871;-34
2023/05/08 09:46:22;;;;;;;17.75;15.68;;;20.30;99.90;;;;;;5080445;28;20470;-35
2023/05/08 09:48:55;;;;;;;19.33;15.77;;;20.40;99.90;;;;;;5079993;28;20016;-35
2023/05/08 09:51:22;;;;;;;22.58;19.02;;;20.50;99.90;;;;;;5080755;28;20083;-34
2023/05/08 09:53:52;;;;;;;21.00;16.63;;;20.60;99.90;;;;;;5080231;28;20035;-35
2023/05/08 09:56:39;;;;;;;18.70;15.95;;;20.80;99.90;;;;;;5079153;28;20093;-36
2023/05/08 09:59:22;;;;;;;22.42;17.42;;;20.90;99.90;;;;;;5079977;28;20024;-35
2023/05/08 10:01:47;;;;;;;21.52;17.15;;;21.00;99.90;;;;;;5080209;28;20055;-34
2023/05/08 10:04:13;;;;;;;19.13;16.67;;;21.10;99.90;;;;;;5079844;28;20131;-36
2023/05/08 10:06:39;;;;;;;19.45;17.45;;;21.20;99.90;;;;;;5079943;28;20546;-35
2023/05/08 10:09:14;;;;;;;19.00;17.00;;;21.30;99.90;;;;;;5079872;28;20035;-35
2023/05/08 10:11:50;;;;;;;18.27;16.42;;;21.30;99.90;;;;;;5060352;28;20123;-35
2023/05/08 10:14:16;;;;;;;19.95;17.95;;;21.30;99.90;;;;;;5076115;28;20169;-35
2023/05/08 10:16:44;;;;;;;20.02;18.02;;;21.40;99.90;;;;;;5080151;28;20032;-34
2023/05/08 10:19:15;;;;;;;18.98;17.08;;;21.40;99.90;;;;;;5081600;28;20024;-36
2023/05/08 10:21:46;;;;;;;21.08;18.88;;;21.40;99.90;;;;;;5084721;28;20076;-34
2023/05/08 10:24:14;;;;;;;20.35;18.33;;;21.50;99.90;;;;;;5084009;28;20038;-33
2023/05/08 10:26:43;;;;;;;19.08;17.17;;;21.60;99.90;;;;;;5083832;28;20529;-34
2023/05/08 10:29:17;;;;;;;20.00;18.08;;;21.60;99.90;;;;;;5084443;28;20077;-35
2023/05/08 10:31:44;;;;;;;19.00;17.10;;;21.60;99.90;;;;;;5083661;28;20117;-36
2023/05/08 10:34:17;;;;;;;21.65;19.48;;;21.60;99.90;;;;;;5084663;28;20103;-35
2023/05/08 10:36:44;;;;;;;20.30;18.20;;;21.50;99.90;;;;;;5084582;28;20656;-36
2023/05/08 10:39:11;;;;;;;20.88;18.88;;;21.40;99.90;;;;;;5083334;28;20835;-34
2023/05/08 10:41:37;;;;;;;21.75;19.50;;;21.30;99.90;;;;;;5083958;28;20036;-35
2023/05/08 10:44:04;;;;;;;20.40;18.40;;;21.20;99.90;;;;;;5083377;28;20485;-36
2023/05/08 10:47:08;;;;;;;22.42;20.17;;;21.10;99.90;;;;;;5083993;28;20232;-36
2023/05/08 10:49:39;;;;;;;21.08;18.95;;;20.90;99.90;;;;;;5027012;28;20038;-34
2023/05/08 10:52:15;;;;;;;23.75;21.25;;;20.70;99.90;;;;;;5083564;28;20142;-35
2023/05/08 10:54:53;;;;;;;20.90;18.95;;;20.60;99.90;;;;;;5083974;28;20020;-36
2023/05/08 10:57:18;;;;;;;23.42;21.23;;;20.50;99.90;;;;;;5083807;28;20168;-36
2023/05/08 10:59:45;;;;;;;21.70;19.55;;;20.40;99.90;;;;;;5083411;28;20022;-36
2023/05/08 11:02:11;;;;;;;23.00;20.73;;;20.40;99.90;;;;;;5084007;28;20051;-36
2023/05/08 11:04:37;;;;;;;22.95;20.75;;;20.30;99.90;;;;;;5083452;28;20020;-34
2023/05/08 11:07:03;;;;;;;24.02;21.65;;;20.20;99.90;;;;;;5082485;28;20020;-34
2023/05/08 11:09:44;;;;;;;23.48;21.17;;;20.20;99.90;;;;;;5082943;28;20023;-34
2023/05/08 11:12:28;;;;;;;21.90;19.70;;;20.10;99.90;;;;;;5082556;28;20040;-35
2023/05/08 11:15:05;;;;;;;22.48;20.25;;;20.10;99.90;;;;;;5083122;28;20035;-34
2023/05/08 11:17:32;;;;;;;22.55;20.27;;;20.10;99.90;;;;;;5071582;28;20032;-36
2023/05/08 11:20:03;;;;;;;21.50;19.48;;;20.20;99.90;;;;;;5082342;28;20123;-34
2023/05/08 11:22:31;;;;;;;21.60;19.50;;;20.20;99.90;;;;;;5083150;28;20023;-35
2023/05/08 11:24:57;;;;;;;23.63;21.27;;;20.30;99.90;;;;;;5100458;28;20028;-34
2023/05/08 11:27:33;;;;;;;24.50;22.13;;;20.40;99.90;;;;;;5082013;28;20089;-34
2023/05/08 11:30:21;;;;;;;23.15;20.85;;;20.40;99.90;;;;;;5083173;28;20108;-36
2023/05/08 11:33:01;;;;;;;25.88;23.38;;;20.60;99.90;;;;;;5080656;28;20047;-36
2023/05/08 11:35:46;;;;;;;24.45;22.05;;;20.70;99.90;;;;;;5081490;28;20073;-35
2023/05/08 11:38:16;;;;;;;26.10;23.50;;;20.90;99.90;;;;;;5082720;28;20111;-35
2023/05/08 11:40:53;;;;;;;26.38;23.77;;;21.00;99.90;;;;;;5081798;28;20032;-34
2023/05/08 11:43:43;;;;;;;23.52;21.33;;;21.30;99.90;;;;;;5083159;28;20055;-35
2023/05/08 11:46:16;;;;;;;25.20;22.70;;;21.50;99.90;;;;;;5033909;28;20042;-35
2023/05/08 11:48:42;;;;;;;23.15;20.95;;;21.60;99.90;;;;;;5082952;28;20115;-34
2023/05/08 11:51:08;;;;;;;21.88;19.67;;;21.60;99.90;;;;;;5083269;28;20089;-34
2023/05/08 11:53:37;;;;;;;18.02;16.38;;;21.80;99.90;;;;;;5082404;28;20372;-34
2023/05/08 11:56:03;;;;;;;19.65;17.77;;;21.90;99.90;;;;;;5081873;28;20760;-35
2023/05/08 11:58:29;;;;;;;22.25;20.15;;;22.10;99.90;;;;;;5081976;28;20028;-36
2023/05/08 12:00:56;;;;;;;20.75;18.73;;;22.20;99.90;;;;;;5082830;28;20407;-35
2023/05/08 12:03:26;;;;;;;18.95;17.17;;;22.30;99.90;;;;;;5081509;28;20097;-34
2023/05/08 12:05:56;;;;;;;19.02;17.13;;;22.40;99.90;;;;;;5083285;28;20057;-35
2023/05/08 12:08:22;;;;;;;22.35;20.15;;;22.60;99.90;;;;;;5081222;28;20092;-34
2023/05/08 12:10:53;;;;;;;20.05;18.15;;;22.70;99.90;;;;;;5082726;28;20028;-35
2023/05/08 12:13:20;;;;;;;18.42;16.73;;;22.80;99.90;;;;;;5081742;28;20826;-34
2023/05/08 12:15:47;;;;;;;19.95;17.95;;;22.90;99.90;;;;;;5075868;28;20024;-35
2023/05/08 12:18:13;;;;;;;21.33;19.13;;;22.90;99.90;;;;;;5082157;28;20028;-36
2023/05/08 12:20:39;;;;;;;19.15;17.35;;;22.90;99.90;;;;;;5082074;28;20020;-36
2023/05/08 12:23:04;;;;;;;17.88;16.17;;;22.90;99.90;;;;;;5081343;28;20020;-34
2023/05/08 12:25:30;;;;;;;17.17;15.43;;;22.90;99.90;;;;;;5081172;28;20044;-35
2023/05/08 12:27:57;;;;;;;16.45;14.93;;;22.90;99.90;;;;;;5081721;28;20103;-35
2023/05/08 12:30:22;;;;;;;16.60;15.10;;;22.90;99.90;;;;;;5081005;28;20524;-36
2023/05/08 12:32:49;;;;;;;17.70;16.02;;;22.90;99.90;;;;;;5081657;28;20039;-35
2023/05/08 12:35:15;;;;;;;15.48;14.05;;;22.90;99.90;;;;;;5081380;28;20534;-36
2023/05/08 12:37:41;;;;;;;15.65;14.07;;;22.90;99.90;;;;;;5080426;28;20501;-35
2023/05/08 12:40:21;;;;;;;15.23;13.90;;;22.90;99.90;;;;;;5082268;28;20020;-34